Time;durP1;ratioP1;P1;durP2;ratioP2;P2;SDS_P1;SDS_P2;PMS_P1;PMS_P2;Temp;Humidity;BMP_temperature;BMP_pressure;BME280_temperature;BME280_humidity;BME280_pressure;Samples;Min_cycle;Max_cycle;Signal;HPM_P1;HPM_P2
2022/04/01 00:00:41;;;;;;;54.83;8.43;;;;;;;;;;5022233;28;20033;-44
2022/04/01 00:03:09;;;;;;;89.75;10.05;;;;;;;;;;5032774;28;20038;-45
2022/04/01 00:05:38;;;;;;;62.50;8.35;;;;;;;;;;5033628;28;20033;-46
2022/04/01 00:08:05;;;;;;;72.82;8.20;;;;;;;;;;5033351;28;20033;-45
2022/04/01 00:10:32;;;;;;;62.08;8.18;;;;;;;;;;5033099;28;20018;-45
2022/04/01 00:12:59;;;;;;;68.38;9.25;;;;;;;;;;5032993;28;20091;-47
2022/04/01 00:15:26;;;;;;;65.78;8.43;;;;;;;;;;5032875;28;20044;-44
2022/04/01 00:17:54;;;;;;;60.90;8.77;;;;;;;;;;5033054;28;20033;-46
2022/04/01 00:20:21;;;;;;;72.15;7.70;;;;;;;;;;5032628;28;20025;-44
2022/04/01 00:22:48;;;;;;;67.72;8.68;;;;;;;;;;5032871;28;20033;-46
2022/04/01 00:25:15;;;;;;;75.03;8.68;;;;;;;;;;5033605;28;20119;-43
2022/04/01 00:27:42;;;;;;;71.70;8.70;;;;;;;;;;5033055;28;20033;-44
2022/04/01 00:30:09;;;;;;;77.25;9.45;;;;;;;;;;5032917;28;20068;-46
2022/04/01 00:32:37;;;;;;;63.22;8.68;;;;;;;;;;5033332;28;20157;-44
2022/04/01 00:35:04;;;;;;;55.78;8.43;;;;;;;;;;5033191;28;20037;-46
2022/04/01 00:37:31;;;;;;;58.47;8.77;;;;;;;;;;5032896;28;20025;-48
2022/04/01 00:39:58;;;;;;;52.45;8.18;;;;;;;;;;5032584;28;20025;-47
2022/04/01 00:42:30;;;;;;;52.22;7.40;;;;;;;;;;5032747;28;20118;-43
2022/04/01 00:44:58;;;;;;;56.70;7.82;;;;;;;;;;5032735;28;20030;-47
2022/04/01 00:47:26;;;;;;;68.38;8.93;;;;;;;;;;5032884;28;20045;-49
2022/04/01 00:49:54;;;;;;;72.13;8.27;;;;;;;;;;5032905;28;20471;-44
2022/04/01 00:52:22;;;;;;;63.42;8.38;;;;;;;;;;5032568;28;20714;-46
2022/04/01 00:54:50;;;;;;;54.10;8.50;;;;;;;;;;5032944;28;20495;-44
2022/04/01 00:57:18;;;;;;;61.15;7.88;;;;;;;;;;5032631;28;20032;-46
2022/04/01 00:59:47;;;;;;;52.38;8.30;;;;;;;;;;5032223;28;20525;-46
2022/04/01 01:02:14;;;;;;;44.88;7.63;;;;;;;;;;5032552;28;20084;-48
2022/04/01 01:04:41;;;;;;;54.35;7.90;;;;;;;;;;5032122;28;20153;-44
2022/04/01 01:07:09;;;;;;;42.67;7.18;;;;;;;;;;5013607;28;20026;-46
2022/04/01 01:09:36;;;;;;;44.80;7.65;;;;;;;;;;5012728;28;20038;-47
2022/04/01 01:12:03;;;;;;;47.25;7.65;;;;;;;;;;5012563;28;20034;-46
2022/04/01 01:14:34;;;;;;;40.15;7.30;;;;;;;;;;5012448;28;20096;-43
2022/04/01 01:17:03;;;;;;;51.08;7.80;;;;;;;;;;5012168;28;20109;-44
2022/04/01 01:19:30;;;;;;;45.13;7.85;;;;;;;;;;5012054;28;20022;-52
2022/04/01 01:21:57;;;;;;;44.33;8.02;;;;;;;;;;5012591;28;20144;-46
2022/04/01 01:24:26;;;;;;;46.22;7.78;;;;;;;;;;5012292;28;20058;-45
2022/04/01 01:26:54;;;;;;;51.72;7.57;;;;;;;;;;5011731;28;20030;-52
2022/04/01 01:29:25;;;;;;;43.42;7.43;;;;;;;;;;5013066;28;20032;-48
2022/04/01 01:31:54;;;;;;;44.90;7.25;;;;;;;;;;5024431;28;20487;-47
2022/04/01 01:34:21;;;;;;;29.65;6.05;;;;;;;;;;5031852;28;20725;-46
2022/04/01 01:36:49;;;;;;;34.72;6.07;;;;;;;;;;5029186;28;20032;-46
2022/04/01 01:39:16;;;;;;;33.58;6.88;;;;;;;;;;5020956;28;20021;-51
2022/04/01 01:41:47;;;;;;;41.80;6.35;;;;;;;;;;5030520;28;20082;-49
2022/04/01 01:44:14;;;;;;;36.10;6.28;;;;;;;;;;5031112;28;20521;-45
2022/04/01 01:46:42;;;;;;;42.88;6.95;;;;;;;;;;5031108;28;20061;-46
2022/04/01 01:49:09;;;;;;;49.53;7.47;;;;;;;;;;5030957;28;20025;-48
2022/04/01 01:57:06;;;;;;;37.88;6.55;;;;;;;;;;5031017;28;20045;-46
2022/04/01 01:59:34;;;;;;;37.15;6.78;;;;;;;;;;5013370;28;20392;-50
2022/04/01 02:02:05;;;;;;;31.40;6.57;;;;;;;;;;5030713;28;20167;-49
2022/04/01 02:04:32;;;;;;;35.45;7.30;;;;;;;;;;5030914;28;20060;-45
2022/04/01 02:07:00;;;;;;;35.42;6.68;;;;;;;;;;5026547;28;20036;-43
2022/04/01 02:09:27;;;;;;;29.63;6.13;;;;;;;;;;5028160;28;20025;-44
2022/04/01 02:11:54;;;;;;;34.88;6.72;;;;;;;;;;5021112;28;20379;-45
2022/04/01 02:14:21;;;;;;;42.33;6.07;;;;;;;;;;5019490;28;20168;-45
2022/04/01 02:16:48;;;;;;;32.50;6.20;;;;;;;;;;5028756;28;20046;-46
2022/04/01 02:19:21;;;;;;;26.63;5.97;;;;;;;;;;5032073;28;20033;-44
2022/04/01 02:21:49;;;;;;;31.85;6.03;;;;;;;;;;5032118;28;20386;-46
2022/04/01 02:24:17;;;;;;;25.83;6.50;;;;;;;;;;5012193;28;20088;-44
2022/04/01 02:26:47;;;;;;;32.50;6.28;;;;;;;;;;5012421;28;20018;-46
2022/04/01 02:29:20;;;;;;;27.38;5.78;;;;;;;;;;5012227;28;20113;-45
2022/04/01 02:31:50;;;;;;;31.15;6.22;;;;;;;;;;4992577;28;20030;-47
2022/04/01 02:34:27;;;;;;;24.65;5.15;;;;;;;;;;4992649;28;20026;-44
2022/04/01 02:36:57;;;;;;;30.77;5.70;;;;;;;;;;4992422;28;20030;-44
2022/04/01 02:39:24;;;;;;;26.17;4.60;;;;;;;;;;4992536;28;20433;-44
2022/04/01 02:41:51;;;;;;;27.52;5.65;;;;;;;;;;4993146;28;20410;-46
2022/04/01 02:44:18;;;;;;;25.25;4.93;;;;;;;;;;5011914;28;20113;-43
2022/04/01 02:46:46;;;;;;;25.13;5.30;;;;;;;;;;5012080;28;20050;-43
2022/04/01 02:49:15;;;;;;;21.17;4.85;;;;;;;;;;5012031;28;20026;-45
2022/04/01 02:51:42;;;;;;;25.00;4.97;;;;;;;;;;5012193;28;20504;-46
2022/04/01 02:54:10;;;;;;;19.52;4.88;;;;;;;;;;5011893;28;20567;-49
2022/04/01 02:56:38;;;;;;;23.08;4.97;;;;;;;;;;4993727;28;20089;-44
2022/04/01 02:59:09;;;;;;;24.52;5.05;;;;;;;;;;5011895;28;20041;-45
2022/04/01 03:01:37;;;;;;;20.20;4.28;;;;;;;;;;5012369;28;20022;-43
2022/04/01 03:04:04;;;;;;;24.73;4.82;;;;;;;;;;5015944;28;20587;-47
2022/04/01 03:06:33;;;;;;;18.17;4.05;;;;;;;;;;5015966;28;20100;-44
2022/04/01 03:09:00;;;;;;;17.75;4.18;;;;;;;;;;5016092;28;20041;-47
2022/04/01 03:11:27;;;;;;;23.65;4.68;;;;;;;;;;5016003;28;20108;-44
2022/04/01 03:13:54;;;;;;;14.63;3.78;;;;;;;;;;5015925;28;20108;-44
2022/04/01 03:16:22;;;;;;;19.63;4.43;;;;;;;;;;5015925;28;20119;-45
2022/04/01 03:18:49;;;;;;;20.33;4.60;;;;;;;;;;5015861;28;20060;-44
2022/04/01 03:21:16;;;;;;;16.27;3.85;;;;;;;;;;5015922;28;20018;-44
2022/04/01 03:23:47;;;;;;;16.70;4.20;;;;;;;;;;5015740;28;20388;-46
2022/04/01 03:26:14;;;;;;;15.50;3.25;;;;;;;;;;5015709;28;20399;-44
2022/04/01 03:28:41;;;;;;;18.67;3.80;;;;;;;;;;5015625;28;20026;-46
2022/04/01 03:31:09;;;;;;;16.40;3.90;;;;;;;;;;5030446;28;20046;-45
2022/04/01 03:33:37;;;;;;;11.55;3.22;;;;;;;;;;5035441;28;20029;-43
2022/04/01 03:36:04;;;;;;;16.45;3.80;;;;;;;;;;5035467;28;20538;-44
2022/04/01 03:38:31;;;;;;;17.90;4.20;;;;;;;;;;5035276;28;20021;-44
2022/04/01 03:40:59;;;;;;;15.95;3.17;;;;;;;;;;5035316;28;20045;-44
2022/04/01 03:43:26;;;;;;;16.27;3.25;;;;;;;;;;5035210;28;20087;-47
2022/04/01 03:45:54;;;;;;;12.80;3.10;;;;;;;;;;5035357;28;20027;-44
2022/04/01 03:48:23;;;;;;;18.02;3.05;;;;;;;;;;5035016;28;20483;-47
2022/04/01 03:50:53;;;;;;;10.40;3.38;;;;;;;;;;5034946;28;20042;-44
2022/04/01 03:53:23;;;;;;;11.68;2.92;;;;;;;;;;5034971;28;20030;-48
2022/04/01 03:55:51;;;;;;;9.27;2.63;;;;;;;;;;5035046;28;20049;-46
2022/04/01 03:58:19;;;;;;;11.63;3.25;;;;;;;;;;5034971;28;20479;-43
2022/04/01 04:00:47;;;;;;;8.30;2.25;;;;;;;;;;5034898;28;20034;-45
2022/04/01 04:03:15;;;;;;;11.57;2.80;;;;;;;;;;5034701;28;20045;-49
2022/04/01 04:05:44;;;;;;;12.32;2.95;;;;;;;;;;5035018;28;20045;-46
2022/04/01 04:08:11;;;;;;;7.25;2.45;;;;;;;;;;5034794;28;20495;-44
2022/04/01 04:10:38;;;;;;;10.73;2.95;;;;;;;;;;5034872;28;20029;-46
2022/04/01 04:13:06;;;;;;;10.35;2.72;;;;;;;;;;5033099;28;20736;-46
2022/04/01 04:15:44;;;;;;;12.52;2.00;;;;;;;;;;5034181;28;20034;-45
2022/04/01 04:18:12;;;;;;;12.93;2.50;;;;;;;;;;5034564;28;20549;-47
2022/04/01 04:20:49;;;;;;;11.10;2.30;;;;;;;;;;5034647;28;20018;-44
2022/04/01 04:23:31;;;;;;;10.35;2.38;;;;;;;;;;5034702;28;20045;-45
2022/04/01 04:25:58;;;;;;;6.50;2.05;;;;;;;;;;5034424;28;20033;-44
2022/04/01 04:28:26;;;;;;;5.60;2.00;;;;;;;;;;5033079;28;20470;-43
2022/04/01 04:31:00;;;;;;;8.60;2.20;;;;;;;;;;5034160;28;20041;-44
2022/04/01 04:33:33;;;;;;;7.38;2.00;;;;;;;;;;5034429;28;20029;-45
2022/04/01 04:36:04;;;;;;;6.75;1.95;;;;;;;;;;5034264;28;20546;-45
2022/04/01 04:38:38;;;;;;;10.70;1.80;;;;;;;;;;5034259;28;20029;-45
2022/04/01 04:41:08;;;;;;;8.77;2.13;;;;;;;;;;5034149;28;20025;-44
2022/04/01 04:43:45;;;;;;;7.75;2.50;;;;;;;;;;5033287;28;20045;-43
2022/04/01 04:46:12;;;;;;;7.50;1.70;;;;;;;;;;5033411;28;20027;-45
2022/04/01 04:48:41;;;;;;;8.80;1.83;;;;;;;;;;5033142;28;20142;-45
2022/04/01 04:51:09;;;;;;;6.47;1.80;;;;;;;;;;5033479;28;20022;-43
2022/04/01 04:53:37;;;;;;;6.80;1.83;;;;;;;;;;5033983;28;20045;-44
2022/04/01 04:56:04;;;;;;;5.88;1.58;;;;;;;;;;5034054;28;20105;-47
2022/04/01 04:58:32;;;;;;;6.53;2.00;;;;;;;;;;5033819;28;20563;-43
2022/04/01 05:01:02;;;;;;;6.40;1.60;;;;;;;;;;5033832;28;20022;-45
2022/04/01 05:03:35;;;;;;;8.18;1.60;;;;;;;;;;5033608;28;20080;-44
2022/04/01 05:06:03;;;;;;;7.63;1.77;;;;;;;;;;5033686;28;20036;-46
2022/04/01 05:08:48;;;;;;;5.88;1.83;;;;;;;;;;5032223;28;20419;-47
2022/04/01 05:11:34;;;;;;;3.85;1.40;;;;;;;;;;5033666;28;20026;-45
2022/04/01 05:14:04;;;;;;;11.48;1.67;;;;;;;;;;5033527;28;20029;-43
2022/04/01 05:16:46;;;;;;;7.60;2.13;;;;;;;;;;5033771;28;20052;-43
2022/04/01 05:19:14;;;;;;;7.50;1.85;;;;;;;;;;5033357;28;20360;-46
2022/04/01 05:22:19;;;;;;;6.18;1.75;;;;;;;;;;5033466;28;20502;-46
2022/04/01 05:24:50;;;;;;;4.68;1.50;;;;;;;;;;4933990;29;20043;-44
2022/04/01 05:27:25;;;;;;;10.57;1.70;;;;;;;;;;4933856;29;20024;-46
2022/04/01 05:30:18;;;;;;;4.15;1.42;;;;;;;;;;4993836;28;20614;-44
2022/04/01 05:32:51;;;;;;;3.97;1.30;;;;;;;;;;5013635;28;20050;-44
2022/04/01 05:35:20;;;;;;;8.43;1.60;;;;;;;;;;5013436;28;20029;-44
2022/04/01 05:37:48;;;;;;;6.82;1.30;;;;;;;;;;5013321;28;20478;-44
2022/04/01 05:40:17;;;;;;;6.15;1.55;;;;;;;;;;5013314;28;20038;-44
2022/04/01 05:42:45;;;;;;;4.65;1.40;;;;;;;;;;5013236;28;20389;-49
2022/04/01 05:45:12;;;;;;;6.38;1.42;;;;;;;;;;5013526;28;20431;-47
2022/04/01 05:47:39;;;;;;;4.97;1.48;;;;;;;;;;5013194;28;20030;-44
2022/04/01 05:50:06;;;;;;;4.57;1.50;;;;;;;;;;5013233;28;20037;-45
2022/04/01 05:52:36;;;;;;;4.57;1.27;;;;;;;;;;5013233;28;20124;-44
2022/04/01 05:55:04;;;;;;;5.45;1.48;;;;;;;;;;5013083;28;20440;-44
2022/04/01 05:57:31;;;;;;;5.72;1.30;;;;;;;;;;5012999;28;20026;-44
2022/04/01 05:59:59;;;;;;;4.43;1.20;;;;;;;;;;5012991;28;20502;-46
2022/04/01 06:02:30;;;;;;;7.55;1.80;;;;;;;;;;5012997;28;20060;-46
2022/04/01 06:05:06;;;;;;;5.00;1.23;;;;;;;;;;5012824;28;20045;-46
2022/04/01 06:07:39;;;;;;;5.43;1.85;;;;;;;;;;5012884;28;20033;-43
2022/04/01 06:10:15;;;;;;;4.38;1.40;;;;;;;;;;5012958;28;20487;-44
2022/04/01 06:12:58;;;;;;;4.68;1.15;;;;;;;;;;5012733;28;20022;-44
2022/04/01 06:15:48;;;;;;;3.22;0.90;;;;;;;;;;5012932;28;20052;-44
2022/04/01 06:18:33;;;;;;;4.15;1.00;;;;;;;;;;4976207;28;20070;-48
2022/04/01 06:21:07;;;;;;;6.60;1.40;;;;;;;;;;5012680;28;20387;-44
2022/04/01 06:24:07;;;;;;;2.45;1.20;;;;;;;;;;5012772;28;20045;-46
2022/04/01 06:26:38;;;;;;;3.58;1.17;;;;;;;;;;4970355;28;20125;-49
2022/04/01 06:29:15;;;;;;;5.70;1.42;;;;;;;;;;5012755;28;20040;-44
2022/04/01 06:31:45;;;;;;;4.65;1.42;;;;;;;;;;5031941;28;20076;-47
2022/04/01 06:34:16;;;;;;;3.33;1.10;;;;;;;;;;5032414;28;20021;-46
2022/04/01 06:36:48;;;;;;;4.38;1.20;;;;;;;;;;5031953;28;20049;-47
2022/04/01 06:39:22;;;;;;;3.22;1.52;;;;;;;;;;5032118;28;20026;-48
2022/04/01 06:41:54;;;;;;;2.70;1.08;;;;;;;;;;5032244;28;20022;-45
2022/04/01 06:44:20;;;;;;;6.53;1.30;;;;;;;;;;5032252;28;20060;-46
2022/04/01 06:46:48;;;;;;;7.30;1.70;;;;;;;;;;5032239;28;20026;-45
2022/04/01 06:49:15;;;;;;;2.95;0.98;;;;;;;;;;5032058;28;20029;-44
2022/04/01 06:51:42;;;;;;;3.20;1.10;;;;;;;;;;5032159;28;20017;-46
2022/04/01 06:54:10;;;;;;;4.20;1.20;;;;;;;;;;5032196;28;20438;-44
2022/04/01 06:56:37;;;;;;;2.28;1.10;;;;;;;;;;5032101;28;20029;-45
2022/04/01 06:59:05;;;;;;;5.13;1.42;;;;;;;;;;5031971;28;20029;-44
2022/04/01 07:01:33;;;;;;;3.63;1.23;;;;;;;;;;5031910;28;20060;-44
2022/04/01 07:04:00;;;;;;;3.85;1.40;;;;;;;;;;5031824;28;20087;-46
2022/04/01 07:06:28;;;;;;;2.33;1.15;;;;;;;;;;5031934;28;20017;-44
2022/04/01 07:08:55;;;;;;;3.42;1.17;;;;;;;;;;5031719;28;20033;-45
2022/04/01 07:11:22;;;;;;;3.67;1.30;;;;;;;;;;5032009;28;20021;-44
2022/04/01 07:13:49;;;;;;;4.30;1.27;;;;;;;;;;5031940;28;20026;-44
2022/04/01 07:16:16;;;;;;;3.65;1.40;;;;;;;;;;5031967;28;20499;-49
2022/04/01 07:18:43;;;;;;;3.42;1.25;;;;;;;;;;5014091;28;20387;-43
2022/04/01 07:21:10;;;;;;;3.88;1.20;;;;;;;;;;5031912;28;20033;-44
2022/04/01 07:23:37;;;;;;;5.90;1.33;;;;;;;;;;5031843;28;20046;-44
2022/04/01 07:26:04;;;;;;;4.72;1.40;;;;;;;;;;5031872;28;20511;-46
2022/04/01 07:28:32;;;;;;;6.30;1.23;;;;;;;;;;5031682;28;20031;-45
2022/04/01 07:32:28;;;;;;;3.03;1.15;;;;;;;;;;5031481;28;20099;-43
2022/04/01 07:33:46;;;;;;;4.90;1.58;;;;;;;;;;5031495;28;20095;-46
2022/04/01 07:36:13;;;;;;;2.08;1.02;;;;;;;;;;5014333;28;20021;-43
2022/04/01 07:38:40;;;;;;;3.53;1.15;;;;;;;;;;5031696;28;20029;-43
2022/04/01 07:41:07;;;;;;;3.53;1.45;;;;;;;;;;5031570;28;20033;-45
2022/04/01 07:43:36;;;;;;;3.78;1.30;;;;;;;;;;5031697;28;20040;-45
2022/04/01 07:46:03;;;;;;;3.42;1.05;;;;;;;;;;5031889;28;20029;-44
2022/04/01 07:48:30;;;;;;;3.47;1.15;;;;;;;;;;5031576;28;20030;-43
2022/04/01 07:50:57;;;;;;;4.60;1.42;;;;;;;;;;5035239;28;20364;-43
2022/04/01 07:53:24;;;;;;;3.13;1.10;;;;;;;;;;5035008;28;20032;-43
2022/04/01 07:55:51;;;;;;;3.63;1.23;;;;;;;;;;5034983;28;20499;-44
2022/04/01 07:58:18;;;;;;;2.88;1.08;;;;;;;;;;5034875;28;20061;-46
2022/04/01 08:00:45;;;;;;;6.07;1.50;;;;;;;;;;5035148;28;20030;-45
2022/04/01 08:03:12;;;;;;;5.03;1.42;;;;;;;;;;5034792;28;20041;-44
2022/04/01 08:05:40;;;;;;;2.88;1.05;;;;;;;;;;5034754;28;20472;-44
2022/04/01 08:08:07;;;;;;;2.88;1.33;;;;;;;;;;5034768;28;20025;-44
2022/04/01 08:10:34;;;;;;;4.07;1.10;;;;;;;;;;5034846;28;20061;-46
2022/04/01 08:13:01;;;;;;;6.10;1.30;;;;;;;;;;5034992;28;20388;-43
2022/04/01 08:18:38;;;;;;;5.68;1.45;;;;;;;;;;5035944;28;20567;-44
2022/04/01 08:24:19;;;;;;;3.50;1.30;;;;;;;;;;5035626;28;20514;-44
2022/04/01 08:29:59;;;;;;;2.80;1.27;;;;;;;;;;5035462;28;20502;-44
2022/04/01 08:35:37;;;;;;;3.67;1.30;;;;;;;;;;5035616;28;20032;-45
2022/04/01 08:41:18;;;;;;;4.30;1.10;;;;;;;;;;5035494;28;20092;-43
2022/04/01 08:46:55;;;;;;;2.88;1.10;;;;;;;;;;5035098;28;20032;-44
2022/04/01 08:52:32;;;;;;;4.72;1.58;;;;;;;;;;5035252;28;20052;-47
2022/04/01 08:58:10;;;;;;;3.58;1.20;;;;;;;;;;5035099;28;20112;-46
2022/04/01 09:03:47;;;;;;;3.00;1.40;;;;;;;;;;5034875;28;20450;-44
2022/04/01 09:09:25;;;;;;;4.20;1.30;;;;;;;;;;5034937;28;20029;-43
2022/04/01 09:15:03;;;;;;;5.65;1.63;;;;;;;;;;5034591;28;20056;-45
2022/04/01 09:20:46;;;;;;;4.32;1.55;;;;;;;;;;5034886;28;20545;-47
2022/04/01 09:26:29;;;;;;;3.25;1.63;;;;;;;;;;5034371;28;20064;-47
2022/04/01 09:32:08;;;;;;;3.30;1.80;;;;;;;;;;5032231;28;20065;-45
2022/04/01 09:37:49;;;;;;;2.88;1.50;;;;;;;;;;5034438;28;20032;-44
2022/04/01 09:43:26;;;;;;;4.90;1.90;;;;;;;;;;5034228;28;20088;-46
2022/04/01 09:49:03;;;;;;;3.70;1.73;;;;;;;;;;5014350;28;20399;-44
2022/04/01 09:54:44;;;;;;;3.20;1.50;;;;;;;;;;5014314;28;20064;-45
2022/04/01 10:00:21;;;;;;;4.18;1.73;;;;;;;;;;5013843;28;20040;-47
2022/04/01 10:05:59;;;;;;;4.25;1.70;;;;;;;;;;5014125;28;20498;-44
2022/04/01 10:11:39;;;;;;;3.50;1.60;;;;;;;;;;5013409;28;20514;-44
2022/04/01 10:17:16;;;;;;;4.53;1.60;;;;;;;;;;5013965;28;20052;-45
2022/04/01 10:22:54;;;;;;;4.95;1.70;;;;;;;;;;5013792;28;20024;-44
2022/04/01 10:28:31;;;;;;;5.30;1.98;;;;;;;;;;5013425;28;20084;-44
2022/04/01 10:34:22;;;;;;;3.78;1.67;;;;;;;;;;5012009;28;20559;-46
2022/04/01 10:40:17;;;;;;;5.40;2.00;;;;;;;;;;5013755;28;20032;-45
2022/04/01 10:46:01;;;;;;;11.65;1.85;;;;;;;;;;5033338;28;20080;-44
2022/04/01 10:51:46;;;;;;;5.22;1.80;;;;;;;;;;5026914;28;20049;-44
2022/04/01 10:54:13;;;;;;;4.72;1.67;;;;;;;;;;5031909;28;20458;-44
2022/04/01 10:56:40;;;;;;;4.45;1.67;;;;;;;;;;5031816;28;20056;-44
2022/04/01 10:59:18;;;;;;;8.25;2.10;;;;;;;;;;5032107;28;20022;-44
2022/04/01 11:01:57;;;;;;;6.82;1.85;;;;;;;;;;5032161;28;20025;-45
2022/04/01 11:04:28;;;;;;;4.63;1.70;;;;;;;;;;5030180;28;20041;-51
2022/04/01 11:07:01;;;;;;;3.58;2.00;;;;;;;;;;5030042;28;20049;-45
2022/04/01 11:09:49;;;;;;;7.38;1.85;;;;;;;;;;5030969;28;20025;-43
2022/04/01 11:12:19;;;;;;;7.40;2.05;;;;;;;;;;5031090;28;20060;-44
2022/04/01 11:15:12;;;;;;;35.47;5.60;;;;;;;;;;5031125;28;20446;-43
2022/04/01 11:17:39;;;;;;;100.30;7.75;;;;;;;;;;5027619;28;20527;-43
2022/04/01 11:20:06;;;;;;;87.18;8.05;;;;;;;;;;5030969;28;20022;-45
2022/04/01 11:22:51;;;;;;;732.42;55.92;;;;;;;;;;5031322;28;20100;-37
2022/04/01 11:25:24;;;;;;;253.65;15.60;;;;;;;;;;5034917;28;20083;-39
2022/04/01 11:27:53;;;;;;;569.25;48.95;;;;;;;;;;5034474;28;20026;-39
2022/04/01 11:30:24;;;;;;;305.02;29.77;;;;;;;;;;5034861;28;20025;-39
2022/04/01 11:32:55;;;;;;;148.75;12.38;;;;;;;;;;5034759;28;20088;-39
2022/04/01 11:35:22;;;;;;;111.38;12.10;;;;;;;;;;5034482;28;20056;-39
2022/04/01 11:37:49;;;;;;;115.00;11.23;;;;;;;;;;5034189;28;20063;-43
2022/04/01 11:40:27;;;;;;;115.78;11.40;;;;;;;;;;5016709;28;20025;-41
2022/04/01 11:42:57;;;;;;;109.93;12.15;;;;;;;;;;5016597;28;20033;-37
2022/04/01 11:45:24;;;;;;;51.30;5.65;;;;;;;;;;5034187;28;20113;-42
2022/04/01 11:47:52;;;;;;;81.63;7.53;;;;;;;;;;5034310;28;20056;-39
2022/04/01 11:50:20;;;;;;;134.95;12.38;;;;;;;;;;5034489;28;20574;-39
2022/04/01 11:52:48;;;;;;;105.97;10.52;;;;;;;;;;5034425;28;20030;-38
2022/04/01 11:55:16;;;;;;;84.03;8.90;;;;;;;;;;5034228;28;20844;-40
2022/04/01 11:57:44;;;;;;;82.50;9.82;;;;;;;;;;5034219;28;20041;-39
2022/04/01 12:00:15;;;;;;;90.63;10.73;;;;;;;;;;5034359;28;20029;-40
2022/04/01 12:02:43;;;;;;;111.22;13.13;;;;;;;;;;5033880;28;20032;-40
2022/04/01 12:05:10;;;;;;;96.40;11.57;;;;;;;;;;5034068;28;20558;-40
2022/04/01 12:10:30;;;;;;;91.07;12.25;;;;;;;;;;5034360;28;20144;-40
2022/04/01 12:13:02;;;;;;;88.88;10.52;;;;;;;;;;5033878;28;20022;-40
2022/04/01 12:15:32;;;;;;;88.07;10.23;;;;;;;;;;5030639;28;20037;-48
2022/04/01 12:18:00;;;;;;;64.30;9.23;;;;;;;;;;5029349;28;20124;-42
2022/04/01 12:20:28;;;;;;;59.28;7.18;;;;;;;;;;5032341;28;20029;-42
2022/04/01 12:23:01;;;;;;;57.67;7.80;;;;;;;;;;5032765;28;20068;-42
2022/04/01 12:25:30;;;;;;;63.05;7.13;;;;;;;;;;5032852;28;20547;-40
2022/04/01 12:28:02;;;;;;;43.80;5.95;;;;;;;;;;5014437;28;20442;-45
2022/04/01 12:30:28;;;;;;;;;;;;;;;;;;5033409;28;20116;-40
2022/04/01 12:32:56;;;;;;;39.42;4.45;;;;;;;;;;5031842;28;19987;-43
2022/04/01 12:35:23;;;;;;;25.52;3.60;;;;;;;;;;5032183;28;20088;-40
2022/04/01 12:38:10;;;;;;;35.80;3.85;;;;;;;;;;5032658;28;20044;-40
2022/04/01 12:40:46;;;;;;;88.38;8.98;;;;;;;;;;5032899;28;20036;-39
2022/04/01 12:43:29;;;;;;;84.88;8.00;;;;;;;;;;5032109;28;20487;-38
2022/04/01 12:46:02;;;;;;;52.92;5.63;;;;;;;;;;5032900;28;20037;-38
2022/04/01 12:48:29;;;;;;;46.38;5.32;;;;;;;;;;5032865;28;20502;-38
2022/04/01 12:50:58;;;;;;;39.70;4.32;;;;;;;;;;5032042;28;20533;-39
2022/04/01 12:53:25;;;;;;;35.95;4.53;;;;;;;;;;5031351;28;20102;-38
2022/04/01 12:55:53;;;;;;;32.45;3.50;;;;;;;;;;5032808;28;20080;-38
2022/04/01 12:58:22;;;;;;;23.08;3.15;;;;;;;;;;5032044;28;20033;-39
2022/04/01 13:00:49;;;;;;;28.05;3.00;;;;;;;;;;5032508;28;20087;-38
2022/04/01 13:03:16;;;;;;;28.88;3.28;;;;;;;;;;5031929;28;20049;-39
2022/04/01 13:05:43;;;;;;;24.83;2.88;;;;;;;;;;5031015;28;20029;-39
2022/04/01 13:08:12;;;;;;;53.45;5.20;;;;;;;;;;5031960;28;20083;-38
2022/04/01 13:10:39;;;;;;;84.47;7.07;;;;;;;;;;5032076;28;20044;-39
2022/04/01 13:13:17;;;;;;;49.20;4.75;;;;;;;;;;5031881;28;20487;-39
2022/04/01 13:15:51;;;;;;;65.63;5.70;;;;;;;;;;5031091;28;20037;-39
2022/04/01 13:18:25;;;;;;;39.38;4.68;;;;;;;;;;5032020;28;20511;-38
2022/04/01 13:20:52;;;;;;;38.97;3.88;;;;;;;;;;5032210;28;20044;-38
2022/04/01 13:23:20;;;;;;;42.40;3.95;;;;;;;;;;5014582;28;20038;-38
2022/04/01 13:25:47;;;;;;;46.65;3.70;;;;;;;;;;5032707;28;20033;-38
2022/04/01 13:28:15;;;;;;;51.95;3.20;;;;;;;;;;5031992;28;20025;-38
2022/04/01 13:30:42;;;;;;;40.78;3.00;;;;;;;;;;5032568;28;20507;-38
2022/04/01 13:33:09;;;;;;;36.28;2.75;;;;;;;;;;5032139;28;20032;-38
2022/04/01 13:35:36;;;;;;;35.33;3.22;;;;;;;;;;5031909;28;20065;-38
2022/04/01 13:38:03;;;;;;;44.80;3.03;;;;;;;;;;5032300;28;20033;-38
2022/04/01 13:40:30;;;;;;;53.28;4.72;;;;;;;;;;5032104;28;20017;-38
2022/04/01 13:42:58;;;;;;;52.25;3.92;;;;;;;;;;5031934;28;20040;-38
2022/04/01 13:45:25;;;;;;;42.38;3.70;;;;;;;;;;5032089;28;20514;-38
2022/04/01 13:47:52;;;;;;;32.30;3.10;;;;;;;;;;5030829;28;20022;-38
2022/04/01 13:50:19;;;;;;;35.75;2.83;;;;;;;;;;5031912;28;20032;-38
2022/04/01 13:52:46;;;;;;;27.42;3.45;;;;;;;;;;5032281;28;20044;-38
2022/04/01 13:55:13;;;;;;;18.05;3.03;;;;;;;;;;5031794;28;20733;-38
2022/04/01 13:57:40;;;;;;;19.63;2.42;;;;;;;;;;5031647;28;20045;-38
2022/04/01 14:00:08;;;;;;;24.65;2.75;;;;;;;;;;5032013;28;20018;-38
2022/04/01 14:02:36;;;;;;;23.17;2.78;;;;;;;;;;5031571;28;20458;-39
2022/04/01 14:05:03;;;;;;;27.85;3.10;;;;;;;;;;5031398;28;20551;-39
2022/04/01 14:07:30;;;;;;;31.50;2.55;;;;;;;;;;5031532;28;20056;-40
2022/04/01 14:09:57;;;;;;;21.23;2.22;;;;;;;;;;5031495;28;20582;-41
2022/04/01 14:12:25;;;;;;;18.52;2.28;;;;;;;;;;5031353;28;20071;-41
2022/04/01 14:14:52;;;;;;;24.55;2.78;;;;;;;;;;5030959;28;20120;-41
2022/04/01 14:17:19;;;;;;;19.50;2.65;;;;;;;;;;5030804;28;20120;-41
2022/04/01 14:19:47;;;;;;;25.27;3.05;;;;;;;;;;5030710;28;20048;-40
2022/04/01 14:22:14;;;;;;;24.95;2.88;;;;;;;;;;5013361;28;20590;-40
2022/04/01 14:24:41;;;;;;;29.15;3.08;;;;;;;;;;5007687;28;20519;-39
2022/04/01 14:27:08;;;;;;;27.42;3.70;;;;;;;;;;5010332;28;20030;-41
2022/04/01 14:32:20;;;;;;;29.92;3.50;;;;;;;;;;5011472;28;20553;-41
2022/04/01 14:34:47;;;;;;;40.45;3.17;;;;;;;;;;5010740;28;20041;-42
2022/04/01 14:37:14;;;;;;;56.65;4.40;;;;;;;;;;5010976;28;20030;-39
2022/04/01 14:39:41;;;;;;;61.05;4.70;;;;;;;;;;5010534;28;20022;-37
2022/04/01 14:42:08;;;;;;;99.25;8.23;;;;;;;;;;5010394;28;20448;-38
2022/04/01 14:44:35;;;;;;;183.70;16.45;;;;;;;;;;5010903;28;20068;-40
2022/04/01 14:47:02;;;;;;;90.90;9.88;;;;;;;;;;5010624;28;20026;-39
2022/04/01 14:49:29;;;;;;;79.32;6.75;;;;;;;;;;5009711;28;20088;-39
2022/04/01 14:51:56;;;;;;;65.20;6.97;;;;;;;;;;5010921;28;20030;-39
2022/04/01 14:54:24;;;;;;;65.05;6.00;;;;;;;;;;5010692;28;20068;-40
2022/04/01 14:56:51;;;;;;;40.28;5.07;;;;;;;;;;5010311;28;20048;-40
2022/04/01 14:59:18;;;;;;;55.22;5.68;;;;;;;;;;5013501;28;20053;-39
2022/04/01 15:01:45;;;;;;;46.88;5.88;;;;;;;;;;5013587;28;20833;-40
2022/04/01 15:04:12;;;;;;;43.75;6.03;;;;;;;;;;4996293;28;20515;-39
2022/04/01 15:06:40;;;;;;;27.38;4.95;;;;;;;;;;5013952;28;20029;-40
2022/04/01 15:09:06;;;;;;;35.03;4.70;;;;;;;;;;5014317;28;20038;-40
2022/04/01 15:11:33;;;;;;;36.47;4.30;;;;;;;;;;5012696;28;20036;-39
2022/04/01 15:14:00;;;;;;;37.65;4.00;;;;;;;;;;5013338;28;20115;-40
2022/04/01 15:16:27;;;;;;;34.92;4.13;;;;;;;;;;5014093;28;20024;-40
2022/04/01 15:18:54;;;;;;;51.67;3.90;;;;;;;;;;5011533;28;20018;-41
2022/04/01 15:21:21;;;;;;;29.10;3.40;;;;;;;;;;5013379;28;20062;-41
2022/04/01 15:23:48;;;;;;;45.42;4.00;;;;;;;;;;5014219;28;20030;-40
2022/04/01 15:26:16;;;;;;;40.95;4.43;;;;;;;;;;5013584;28;20721;-39
2022/04/01 15:28:43;;;;;;;49.15;4.93;;;;;;;;;;5014318;28;20033;-39
2022/04/01 15:31:10;;;;;;;34.05;4.20;;;;;;;;;;5013787;28;20021;-39
2022/04/01 15:33:37;;;;;;;51.88;4.97;;;;;;;;;;5015853;28;20048;-39
2022/04/01 15:36:04;;;;;;;42.78;4.45;;;;;;;;;;5034099;28;20021;-39
2022/04/01 15:38:32;;;;;;;45.45;4.07;;;;;;;;;;5032578;28;20038;-39
2022/04/01 15:41:02;;;;;;;41.45;4.85;;;;;;;;;;5033515;28;20053;-39
2022/04/01 15:43:29;;;;;;;34.17;4.07;;;;;;;;;;5032816;28;20100;-39
2022/04/01 15:45:59;;;;;;;40.58;4.85;;;;;;;;;;5033169;28;20439;-39
2022/04/01 15:48:26;;;;;;;42.28;4.95;;;;;;;;;;5032778;28;20040;-39
2022/04/01 15:50:53;;;;;;;34.90;3.90;;;;;;;;;;5033512;28;20025;-39
2022/04/01 15:53:22;;;;;;;34.58;4.50;;;;;;;;;;5033057;28;20708;-39
2022/04/01 15:55:49;;;;;;;24.45;3.95;;;;;;;;;;5028732;28;20120;-39
2022/04/01 15:58:16;;;;;;;36.70;4.38;;;;;;;;;;5023318;28;20030;-39
2022/04/01 16:00:44;;;;;;;46.83;4.38;;;;;;;;;;5024581;28;20074;-38
2022/04/01 16:03:13;;;;;;;46.40;5.03;;;;;;;;;;5022325;28;20065;-38
2022/04/01 16:05:42;;;;;;;43.75;4.47;;;;;;;;;;5023553;28;20057;-37
2022/04/01 16:08:12;;;;;;;36.35;4.30;;;;;;;;;;5022554;28;20108;-40
2022/04/01 16:10:45;;;;;;;30.67;4.05;;;;;;;;;;5022660;28;20104;-38
2022/04/01 16:13:12;;;;;;;41.25;4.07;;;;;;;;;;5015741;28;20546;-37
2022/04/01 16:15:41;;;;;;;46.45;4.40;;;;;;;;;;5013901;28;20034;-37
2022/04/01 16:18:08;;;;;;;31.10;3.58;;;;;;;;;;5013452;28;20100;-37
2022/04/01 16:20:42;;;;;;;45.85;4.57;;;;;;;;;;5013332;28;20041;-37
2022/04/01 16:23:10;;;;;;;37.83;4.57;;;;;;;;;;5013130;28;20384;-37
2022/04/01 16:25:37;;;;;;;50.40;5.10;;;;;;;;;;5026196;28;20527;-38